map of BHX home
BHX - Airport
Location
City:  Birmingham, Warwickshire, England, United Kingdom
Name:Birmingham Airport
Old (Alt.):Birmingham International Airport
ICAO:EGBB
IATA:BHX

Details
Type:Airport (Aerodrome, Airfield)
Use:Public/Civil, International (customs port of entry)
Latitude:5227'14"N (52.453856)
Longitude:144'53"W (-1.748027)
Elevation:341 ft (104 m)
Variation:1.06W (WMM2015 magnetic declination)
0.15 annual change
Runways:1
Longest:10013 × 148 ft (3052 × 45 m), paved

Time
Time Zone:UTC+0 (DST+1)
Local Time:

Weather
METAR:EGBB 251650Z 05006KT 360V100 CAVOK 27/07 Q1025
TAF:EGBB 251658Z 2518/2618 06004KT CAVOK PROB30 2603/2606 8000= TAF EGFF 251658Z 2518/2618 25004KT CAVOK PROB30 2603/2606 8000

Related Locations
Nearby:
Farthest:NZBA: 11859 mi / 19085 km
Balclutha, OTA, NZ

Find:

   beyond  
but within

Other Information
Maps:
NOTAMs:
Links:
Sources:

  
  • flag of United Kingdom
  • flag of England
  • flag of Birmingham
  

Airport Diagram

Airport diagram for BHX

Airport diagram PDF

Sectional Chart

Flight Planning
at skyvector.com

Satellite Image

Google Maps Satellite view

 

Copyright © 2004-2018 Karl L. Swartz. All rights reserved.
The Great Circle Mapper name and logo are trademarks of the Great Circle Mapper.
All other trademarks mentioned herein belong to their respective owners.
Please see credits for attibutions and further copyright information.

  Follow gcmap on Facebook Follow gcmap on Twitter Follow gcmap on Google+ GCmap on LinkedIn

hCard Microformat

Geo Microformat